Time;durP1;ratioP1;P1;durP2;ratioP2;P2;SDS_P1;SDS_P2;PMS_P1;PMS_P2;Temp;Humidity;BMP_temperature;BMP_pressure;BME280_temperature;BME280_humidity;BME280_pressure;Samples;Min_cycle;Max_cycle;Signal;HPM_P1;HPM_P2
2023/09/26 00:01:28;;;;;;;9.95;5.50;;;;;;;23.44;49.29;95429.69;6038060;28;108962;-62
2023/09/26 00:04:31;;;;;;;10.27;6.20;;;;;;;23.43;49.34;95431.59;6031554;28;108960;-60
2023/09/26 00:07:35;;;;;;;7.45;5.70;;;;;;;23.54;49.15;95435.59;6038807;28;109047;-61
2023/09/26 00:10:39;;;;;;;8.40;5.70;;;;;;;23.52;49.11;95431.63;6035985;28;109159;-61
2023/09/26 00:13:44;;;;;;;8.13;6.47;;;;;;;23.64;49.00;95431.06;6015874;28;108941;-61
2023/09/26 00:16:47;;;;;;;8.23;5.75;;;;;;;23.68;48.60;95424.81;6033114;28;109416;-61
2023/09/26 00:19:50;;;;;;;8.30;5.45;;;;;;;23.75;48.50;95429.72;6039834;28;109259;-61
2023/09/26 00:22:53;;;;;;;10.98;5.82;;;;;;;23.72;48.65;95428.47;6036570;28;108914;-61
2023/09/26 00:25:57;;;;;;;8.60;6.00;;;;;;;23.57;48.85;95432.31;6029634;28;108902;-61
2023/09/26 00:29:02;;;;;;;8.93;5.87;;;;;;;23.58;48.73;95428.53;6043146;28;108943;-62
2023/09/26 00:32:06;;;;;;;8.27;5.50;;;;;;;23.41;49.31;95427.66;6036301;28;108924;-61
2023/09/26 00:35:11;;;;;;;10.57;5.82;;;;;;;23.34;49.53;95432.59;6031401;28;109366;-61
2023/09/26 00:38:15;;;;;;;8.88;6.13;;;;;;;23.40;49.24;95428.75;6030065;28;108913;-62
2023/09/26 00:41:18;;;;;;;6.95;5.60;;;;;;;23.41;49.27;95419.63;6043576;28;108913;-61
2023/09/26 00:44:23;;;;;;;8.50;6.17;;;;;;;23.21;49.52;95429.69;6039068;28;109093;-61
2023/09/26 00:47:26;;;;;;;11.32;6.35;;;;;;;23.40;49.12;95424.19;6037067;28;108857;-60
2023/09/26 00:50:29;;;;;;;8.77;5.80;;;;;;;23.46;48.83;95422.16;6037506;28;108959;-60
2023/09/26 00:53:33;;;;;;;8.60;5.97;;;;;;;23.34;48.96;95425.38;6041397;28;109013;-60
2023/09/26 00:56:38;;;;;;;9.10;6.00;;;;;;;23.46;49.06;95416.81;6042396;28;108906;-61
2023/09/26 00:59:43;;;;;;;10.30;6.00;;;;;;;23.52;48.99;95415.59;6030117;28;108909;-60
2023/09/26 01:02:46;;;;;;;7.05;5.43;;;;;;;23.62;48.41;95419.91;6039583;28;108914;-60
2023/09/26 01:05:50;;;;;;;6.97;5.63;;;;;;;23.63;48.17;95411.59;6028066;28;109491;-60
2023/09/26 01:08:53;;;;;;;7.45;5.82;;;;;;;23.59;48.35;95415.97;6026580;28;108998;-61
2023/09/26 01:11:57;;;;;;;6.93;5.35;;;;;;;23.65;48.49;95404.03;6031456;28;108999;-61
2023/09/26 01:15:01;;;;;;;8.40;6.05;;;;;;;23.58;48.42;95409.84;6031157;28;108904;-61
2023/09/26 01:18:08;;;;;;;7.28;5.50;;;;;;;23.59;48.40;95415.97;6042141;28;108876;-61
2023/09/26 01:21:11;;;;;;;12.13;5.90;;;;;;;23.63;48.31;95416.94;6037692;28;109191;-60
2023/09/26 01:24:17;;;;;;;7.50;5.68;;;;;;;23.73;48.05;95407.88;6031395;28;109981;-61
2023/09/26 01:27:20;;;;;;;9.32;5.82;;;;;;;23.78;47.84;95407.72;6042540;28;108893;-61
2023/09/26 01:30:23;;;;;;;5.97;5.28;;;;;;;23.77;48.02;95409.63;6042364;28;109003;-61
2023/09/26 01:33:27;;;;;;;8.38;6.10;;;;;;;23.69;48.44;95399.69;6025070;28;109294;-61
2023/09/26 01:36:30;;;;;;;8.07;6.00;;;;;;;23.69;48.73;95398.88;6040971;28;109038;-61
2023/09/26 01:39:34;;;;;;;8.07;5.80;;;;;;;23.64;48.64;95397.13;6042117;28;109370;-61
2023/09/26 01:42:38;;;;;;;8.05;5.88;;;;;;;23.70;48.78;95401.25;6040466;28;109926;-60
2023/09/26 01:45:41;;;;;;;8.50;5.60;;;;;;;23.78;48.61;95397.84;6011329;28;110222;-60
2023/09/26 01:48:44;;;;;;;6.80;5.30;;;;;;;23.82;48.18;95401.47;6034715;28;109495;-61
2023/09/26 01:51:47;;;;;;;8.48;5.43;;;;;;;23.74;48.59;95398.75;6018378;29;108977;-62
2023/09/26 01:54:52;;;;;;;6.10;5.30;;;;;;;23.77;48.06;95406.16;6030528;28;109157;-60
2023/09/26 01:57:55;;;;;;;8.23;5.70;;;;;;;23.78;48.14;95407.72;6031357;28;109284;-62
2023/09/26 02:00:58;;;;;;;7.50;5.27;;;;;;;23.74;48.23;95399.53;6021111;28;109248;-61
2023/09/26 02:04:01;;;;;;;9.23;5.97;;;;;;;23.84;48.16;95404.59;6024997;28;108980;-62
2023/09/26 02:07:04;;;;;;;7.57;5.10;;;;;;;23.94;47.72;95410.78;6012056;28;109035;-62
2023/09/26 02:10:10;;;;;;;6.22;4.90;;;;;;;23.97;47.59;95418.19;6028829;28;109572;-60
2023/09/26 02:13:13;;;;;;;9.85;5.88;;;;;;;23.93;47.82;95415.34;6039270;28;108918;-60
2023/09/26 02:16:17;;;;;;;6.88;5.30;;;;;;;23.87;47.95;95422.72;6037423;28;108968;-60
2023/09/26 02:19:20;;;;;;;9.60;5.60;;;;;;;23.86;47.70;95418.47;6013815;28;108928;-61
2023/09/26 02:22:23;;;;;;;7.23;5.37;;;;;;;23.88;47.03;95413.59;6040555;28;108925;-62
2023/09/26 02:25:28;;;;;;;8.73;5.65;;;;;;;23.95;47.53;95417.72;6034490;28;109122;-61
2023/09/26 02:28:31;;;;;;;8.20;5.50;;;;;;;23.93;47.21;95409.22;6038854;28;108938;-61
2023/09/26 02:31:35;;;;;;;7.20;5.00;;;;;;;23.89;47.46;95411.72;6030418;28;109304;-61
2023/09/26 02:34:38;;;;;;;9.68;5.53;;;;;;;23.85;47.42;95408.84;6035722;28;109129;-61
2023/09/26 02:37:41;;;;;;;7.18;5.03;;;;;;;23.82;47.14;95406.81;6041108;28;109014;-61
2023/09/26 02:40:46;;;;;;;6.30;5.40;;;;;;;23.73;47.42;95408.66;6031628;28;108905;-61
2023/09/26 02:43:54;;;;;;;8.02;5.43;;;;;;;23.58;47.77;95409.06;6034516;28;108981;-62
2023/09/26 02:46:58;;;;;;;6.40;5.60;;;;;;;23.50;47.86;95407.88;6035625;28;108894;-60
2023/09/26 02:50:01;;;;;;;7.28;6.20;;;;;;;23.62;47.35;95407.34;6029822;28;108875;-61
2023/09/26 02:53:05;;;;;;;10.65;7.50;;;;;;;23.47;47.91;95402.38;6021638;28;109055;-61
2023/09/26 02:56:11;;;;;;;9.73;6.40;;;;;;;23.44;48.00;95411.00;6039755;28;108985;-62
2023/09/26 02:59:14;;;;;;;7.88;5.97;;;;;;;23.65;47.27;95414.72;6038496;28;108869;-62
2023/09/26 03:02:17;;;;;;;10.23;7.30;;;;;;;23.52;47.80;95413.75;6040736;28;108943;-60
2023/09/26 03:05:21;;;;;;;14.52;10.30;;;;;;;23.49;47.35;95416.22;6027538;28;109352;-60
2023/09/26 03:08:24;;;;;;;9.15;6.10;;;;;;;23.53;47.20;95419.88;6035381;28;109060;-61
2023/09/26 03:11:30;;;;;;;7.22;5.85;;;;;;;23.60;46.94;95428.22;6038472;28;108958;-61
2023/09/26 03:14:34;;;;;;;7.93;6.30;;;;;;;23.71;46.74;95421.53;6035321;28;109374;-62
2023/09/26 03:17:37;;;;;;;8.60;6.50;;;;;;;23.74;46.59;95423.59;6030403;28;108973;-61
2023/09/26 03:20:40;;;;;;;9.63;5.93;;;;;;;23.72;46.41;95415.09;6037195;28;109034;-61
2023/09/26 03:23:43;;;;;;;8.93;5.90;;;;;;;23.71;46.49;95428.78;6039235;28;109133;-60
2023/09/26 03:26:47;;;;;;;12.77;7.40;;;;;;;23.62;46.73;95426.03;6028918;28;108985;-62
2023/09/26 03:29:50;;;;;;;10.52;9.35;;;;;;;23.47;47.02;95424.53;6033550;28;109112;-60
2023/09/26 03:32:54;;;;;;;13.23;10.18;;;;;;;23.52;47.13;95427.09;6039959;28;109118;-62
2023/09/26 03:35:58;;;;;;;10.00;9.00;;;;;;;23.21;46.54;95420.88;6035100;28;109020;-61
2023/09/26 03:39:01;;;;;;;8.82;5.78;;;;;;;22.98;46.79;95436.06;6026273;28;109781;-60
2023/09/26 03:42:05;;;;;;;9.05;6.00;;;;;;;22.85;46.65;95431.56;6031993;28;109223;-61
2023/09/26 03:45:09;;;;;;;9.37;5.70;;;;;;;22.84;46.78;95425.44;6037511;28;108908;-62
2023/09/26 03:48:12;;;;;;;9.02;5.80;;;;;;;23.22;46.70;95436.59;6038002;28;108995;-61
2023/09/26 03:51:16;;;;;;;8.00;5.40;;;;;;;23.13;47.09;95429.59;6022632;28;108935;-60
2023/09/26 03:54:19;;;;;;;9.20;5.43;;;;;;;22.81;47.62;95428.72;6026979;28;109035;-62
2023/09/26 03:57:23;;;;;;;11.35;5.45;;;;;;;22.60;47.60;95432.91;6038193;28;109340;-63
2023/09/26 04:00:28;;;;;;;11.50;5.63;;;;;;;22.77;47.86;95442.97;6032298;28;109394;-62
2023/09/26 04:03:31;;;;;;;10.60;5.90;;;;;;;22.80;47.98;95448.47;6028387;28;110071;-60
2023/09/26 04:06:35;;;;;;;9.77;6.80;;;;;;;22.69;47.46;95445.25;6036221;28;108903;-61
2023/09/26 04:09:38;;;;;;;10.95;6.20;;;;;;;22.76;47.68;95439.50;6058706;28;109100;-61
2023/09/26 04:12:42;;;;;;;8.50;5.70;;;;;;;22.77;47.38;95442.97;6028254;28;109318;-61
2023/09/26 04:15:45;;;;;;;12.35;5.85;;;;;;;22.75;47.63;95435.25;6033164;28;109164;-61
2023/09/26 04:18:48;;;;;;;10.95;5.45;;;;;;;22.69;47.91;95437.25;6034321;28;108961;-62
2023/09/26 04:21:53;;;;;;;8.87;5.50;;;;;;;22.91;47.74;95447.19;6035869;28;109312;-60
2023/09/26 04:24:56;;;;;;;12.17;6.10;;;;;;;22.91;47.78;95443.72;6027839;28;109258;-61
2023/09/26 04:28:02;;;;;;;12.25;6.38;;;;;;;22.99;47.63;95448.34;6039222;28;110324;-60
2023/09/26 04:31:06;;;;;;;10.85;5.90;;;;;;;23.05;47.73;95449.81;6039213;28;109185;-62
2023/09/26 04:34:09;;;;;;;14.45;6.10;;;;;;;23.18;47.20;95456.19;6039143;28;109031;-60
2023/09/26 04:37:12;;;;;;;9.95;5.90;;;;;;;23.24;47.73;95449.66;6029254;28;109471;-60
2023/09/26 04:40:17;;;;;;;8.80;5.53;;;;;;;23.26;47.16;95450.13;6039146;28;108993;-60
2023/09/26 04:43:22;;;;;;;9.07;5.70;;;;;;;23.28;46.68;95445.28;6038939;28;109002;-60
2023/09/26 04:46:25;;;;;;;12.25;6.10;;;;;;;23.28;47.01;95440.72;6028988;28;109034;-61
2023/09/26 04:49:28;;;;;;;8.93;6.10;;;;;;;23.29;47.19;95449.53;6037512;28;109073;-60
2023/09/26 04:52:31;;;;;;;10.07;5.70;;;;;;;23.30;47.13;95457.25;6039088;28;108999;-59
2023/09/26 04:55:36;;;;;;;11.33;5.73;;;;;;;23.33;46.39;95460.41;6038786;28;109494;-60
2023/09/26 04:58:41;;;;;;;10.07;5.80;;;;;;;23.32;46.37;95454.28;6033523;28;109259;-60
2023/09/26 05:01:45;;;;;;;10.57;5.88;;;;;;;23.34;46.99;95467.31;6043498;28;109447;-59
2023/09/26 05:04:49;;;;;;;9.70;5.50;;;;;;;23.34;46.81;95461.97;6038449;28;108921;-60
2023/09/26 05:07:52;;;;;;;11.13;5.93;;;;;;;23.33;47.10;95461.19;6038371;28;108868;-60
2023/09/26 05:10:55;;;;;;;10.75;6.55;;;;;;;23.36;47.07;95457.94;6029845;28;110045;-60
2023/09/26 05:14:00;;;;;;;11.82;8.35;;;;;;;23.37;47.12;95469.41;6026571;28;108897;-60
2023/09/26 05:17:03;;;;;;;17.85;11.00;;;;;;;23.38;46.77;95473.66;6039453;28;109059;-60
2023/09/26 05:20:08;;;;;;;15.05;10.50;;;;;;;23.38;46.61;95474.44;6036978;28;109148;-62
2023/09/26 05:23:11;;;;;;;14.98;9.48;;;;;;;23.40;46.36;95477.59;6036922;28;108991;-60
2023/09/26 05:26:14;;;;;;;12.43;8.45;;;;;;;23.41;45.96;95475.72;6042599;28;108976;-63
2023/09/26 05:29:19;;;;;;;10.20;7.28;;;;;;;23.22;46.42;95478.53;6042311;28;109031;-59
2023/09/26 05:32:22;;;;;;;12.38;6.80;;;;;;;23.27;45.82;95473.84;6030786;28;108941;-60
2023/09/26 05:35:25;;;;;;;12.05;6.40;;;;;;;23.35;45.76;95471.56;6042167;28;109100;-60
2023/09/26 05:38:28;;;;;;;14.25;6.20;;;;;;;23.40;46.00;95471.47;6042456;28;108866;-60
2023/09/26 05:41:32;;;;;;;11.37;5.50;;;;;;;23.43;45.57;95471.66;6042257;28;109189;-61
2023/09/26 05:44:36;;;;;;;13.23;5.80;;;;;;;23.48;45.60;95473.41;6030732;28;109091;-60
2023/09/26 05:47:39;;;;;;;10.07;5.40;;;;;;;23.51;45.98;95475.47;6041804;28;109008;-59
2023/09/26 05:50:43;;;;;;;11.02;5.30;;;;;;;23.53;46.05;95473.31;6041406;28;108889;-60
2023/09/26 05:53:46;;;;;;;11.82;5.28;;;;;;;23.58;46.04;95479.31;6040412;28;108913;-62
2023/09/26 05:56:49;;;;;;;10.95;5.30;;;;;;;23.66;45.51;95476.97;6034776;28;109213;-60
2023/09/26 05:59:53;;;;;;;13.18;5.90;;;;;;;23.67;45.93;95474.00;6041697;28;108928;-60
2023/09/26 06:02:57;;;;;;;13.33;5.27;;;;;;;23.72;45.25;95478.44;6041809;28;108976;-60
2023/09/26 06:06:03;;;;;;;11.35;4.90;;;;;;;23.78;45.09;95487.91;6031095;28;109256;-60
2023/09/26 06:09:07;;;;;;;11.70;4.80;;;;;;;23.85;45.15;95481.03;6041517;28;108920;-61
2023/09/26 06:12:10;;;;;;;11.27;5.13;;;;;;;23.95;44.96;95471.19;6041596;28;108902;-64
2023/09/26 06:15:14;;;;;;;8.32;4.63;;;;;;;24.05;44.92;95478.97;6041429;28;109039;-65
2023/09/26 06:18:17;;;;;;;10.82;5.10;;;;;;;24.13;44.60;95479.00;6030999;28;109039;-65
2023/09/26 06:21:20;;;;;;;11.27;4.80;;;;;;;24.22;44.87;95487.06;6040201;28;108921;-64
2023/09/26 06:24:24;;;;;;;8.50;4.50;;;;;;;24.30;44.64;95478.28;6041969;28;109261;-64
2023/09/26 06:27:27;;;;;;;6.88;4.00;;;;;;;24.38;44.83;95474.09;6041274;28;108954;-64
2023/09/26 06:30:32;;;;;;;9.73;4.80;;;;;;;24.48;44.16;95479.13;6030588;28;109665;-64
2023/09/26 06:33:35;;;;;;;10.13;4.53;;;;;;;24.58;44.16;95488.78;6041133;28;108943;-63
2023/09/26 06:36:39;;;;;;;7.75;4.10;;;;;;;24.66;44.08;95479.97;6041104;28;109024;-65
2023/09/26 06:39:42;;;;;;;8.17;4.40;;;;;;;24.71;43.86;95486.00;6035515;28;109205;-63
2023/09/26 06:42:45;;;;;;;7.77;4.33;;;;;;;24.79;43.88;95493.25;6036028;28;109816;-63
2023/09/26 06:45:50;;;;;;;8.30;4.68;;;;;;;24.85;43.55;95477.03;6040800;28;108929;-64
2023/09/26 06:48:53;;;;;;;7.80;4.53;;;;;;;24.89;43.52;95476.13;6040898;28;108941;-59
2023/09/26 06:51:56;;;;;;;7.70;4.53;;;;;;;24.94;43.48;95475.97;6029890;28;109419;-59
2023/09/26 06:55:00;;;;;;;8.10;4.50;;;;;;;25.02;43.34;95477.84;6040865;28;109062;-59
2023/09/26 06:58:04;;;;;;;7.22;4.50;;;;;;;25.08;43.39;95479.28;6040600;28;108991;-60
2023/09/26 07:01:14;;;;;;;9.47;4.50;;;;;;;25.11;43.24;95475.19;6040771;28;109231;-60
2023/09/26 07:04:18;;;;;;;7.07;4.03;;;;;;;25.12;42.93;95478.66;6030469;28;110070;-58
2023/09/26 07:07:21;;;;;;;9.18;4.70;;;;;;;25.11;42.95;95474.41;6040051;28;108936;-58
2023/09/26 07:10:24;;;;;;;6.93;4.20;;;;;;;25.13;43.03;95474.88;6040773;28;108948;-59
2023/09/26 07:13:28;;;;;;;8.60;4.60;;;;;;;25.21;42.29;95471.44;6036237;28;109317;-58
2023/09/26 07:16:52;;;;;;;7.50;4.45;;;;;;;25.27;42.60;95478.19;6035270;28;109284;-58
2023/09/26 07:19:55;;;;;;;4.85;3.60;;;;;;;25.30;42.30;95482.91;6030052;28;108984;-59
2023/09/26 07:22:58;;;;;;;11.95;4.78;;;;;;;25.35;42.37;95480.09;6036975;28;109043;-58
2023/09/26 07:26:12;;;;;;;7.97;4.30;;;;;;;25.38;42.56;95480.28;6030312;28;110048;-58
2023/09/26 07:29:18;;;;;;;10.43;4.83;;;;;;;25.31;42.50;95471.09;6040662;28;108806;-58
2023/09/26 07:32:22;;;;;;;5.73;4.10;;;;;;;25.21;42.77;95480.25;6039948;28;108955;-58
2023/09/26 07:35:27;;;;;;;7.85;3.92;;;;;;;25.22;42.48;95478.38;6038819;28;108914;-59
2023/09/26 07:38:31;;;;;;;7.88;4.13;;;;;;;25.29;42.04;95474.09;6029177;28;109154;-59
2023/09/26 07:41:34;;;;;;;8.75;4.30;;;;;;;25.40;41.65;95476.50;6039711;28;108913;-59
2023/09/26 07:44:37;;;;;;;6.68;3.90;;;;;;;25.48;42.16;95473.00;6040550;28;108930;-58
2023/09/26 07:47:41;;;;;;;7.70;4.55;;;;;;;25.41;41.93;95473.50;6035375;28;109037;-64
2023/09/26 07:50:44;;;;;;;8.32;3.95;;;;;;;25.45;42.22;95463.72;6034554;28;109359;-57
2023/09/26 07:53:47;;;;;;;7.65;4.00;;;;;;;25.52;41.49;95463.22;6038746;28;109010;-58
2023/09/26 07:56:51;;;;;;;6.35;3.55;;;;;;;25.62;41.51;95458.34;6039564;28;109022;-59
2023/09/26 07:59:54;;;;;;;8.85;3.95;;;;;;;25.60;41.30;95465.91;6028544;28;108949;-61
2023/09/26 08:02:58;;;;;;;7.85;4.60;;;;;;;25.64;41.72;95452.66;6039618;28;108979;-59
2023/09/26 08:06:02;;;;;;;5.63;3.70;;;;;;;25.69;41.48;95453.25;6039061;28;109214;-59
2023/09/26 08:09:06;;;;;;;7.15;3.92;;;;;;;25.75;41.54;95451.22;6039506;28;108925;-60
2023/09/26 08:12:09;;;;;;;6.73;4.10;;;;;;;25.84;41.16;95451.97;6028651;28;109299;-60
2023/09/26 08:15:13;;;;;;;7.55;3.90;;;;;;;25.85;41.20;95455.44;6016467;29;108916;-59
2023/09/26 08:18:18;;;;;;;7.03;3.75;;;;;;;25.80;41.05;95443.00;6036374;28;109177;-59
2023/09/26 08:21:21;;;;;;;10.20;3.90;;;;;;;25.82;41.03;95440.78;6039383;28;109303;-59
2023/09/26 08:24:24;;;;;;;7.50;3.60;;;;;;;25.89;40.51;95445.66;6029039;28;110791;-58
2023/09/26 08:27:27;;;;;;;7.20;3.90;;;;;;;25.86;40.85;95446.28;6039303;28;108953;-58
2023/09/26 08:30:33;;;;;;;8.50;3.95;;;;;;;25.80;40.62;95437.63;6039684;28;108993;-58
2023/09/26 08:33:38;;;;;;;9.18;4.30;;;;;;;25.73;40.34;95445.41;6030344;28;108851;-60
2023/09/26 08:36:41;;;;;;;7.25;3.33;;;;;;;25.68;40.28;95432.13;6038464;28;108972;-60
2023/09/26 08:39:44;;;;;;;6.22;3.80;;;;;;;25.72;40.14;95440.34;6039168;28;109022;-60
2023/09/26 08:42:49;;;;;;;7.43;3.87;;;;;;;25.78;39.47;95433.69;6035319;28;109178;-59
2023/09/26 08:45:53;;;;;;;5.90;3.50;;;;;;;25.84;39.28;95437.78;6008486;28;109789;-61
2023/09/26 08:49:02;;;;;;;7.43;4.03;;;;;;;25.87;39.80;95437.13;6043089;28;108953;-59
2023/09/26 08:52:05;;;;;;;6.57;3.80;;;;;;;25.86;39.46;95447.06;6043102;28;108946;-58
2023/09/26 08:55:10;;;;;;;7.63;3.80;;;;;;;25.78;39.66;95436.38;6042236;28;109006;-58
2023/09/26 08:58:13;;;;;;;6.90;3.70;;;;;;;25.77;39.97;95440.19;6031868;28;110452;-58
2023/09/26 09:01:18;;;;;;;6.53;3.50;;;;;;;25.76;39.60;95441.28;6042890;28;109165;-59
2023/09/26 09:04:22;;;;;;;6.20;3.70;;;;;;;25.71;39.40;95438.75;6043261;28;109026;-58
2023/09/26 09:07:26;;;;;;;8.10;3.65;;;;;;;25.69;39.32;95442.53;6036863;28;109003;-59
2023/09/26 09:10:29;;;;;;;6.70;3.80;;;;;;;25.72;39.01;95432.31;6037178;28;109715;-60
2023/09/26 09:13:33;;;;;;;8.70;4.00;;;;;;;25.77;38.93;95434.81;6032641;28;108942;-60
2023/09/26 09:16:36;;;;;;;5.60;3.60;;;;;;;25.77;38.58;95434.81;6023411;28;109400;-60
2023/09/26 09:19:49;;;;;;;6.90;3.80;;;;;;;25.73;38.91;95426.63;6031834;28;109249;-60
2023/09/26 09:22:59;;;;;;;7.65;4.15;;;;;;;25.81;38.79;95433.06;6043299;28;109075;-60
2023/09/26 09:26:12;;;;;;;7.80;3.90;;;;;;;25.88;38.32;95423.44;6041650;28;108984;-60
2023/09/26 09:29:20;;;;;;;7.97;3.63;;;;;;;25.81;39.01;95423.13;6042388;28;108927;-60
2023/09/26 09:32:24;;;;;;;7.05;3.60;;;;;;;25.85;38.64;95423.25;6032183;28;109034;-61
2023/09/26 09:35:28;;;;;;;6.47;4.05;;;;;;;25.91;39.01;95417.41;6042618;28;108883;-59
2023/09/26 09:38:33;;;;;;;6.30;3.70;;;;;;;25.97;38.39;95407.28;6042259;28;109224;-59
2023/09/26 09:41:38;;;;;;;7.07;3.58;;;;;;;26.02;39.11;95409.81;6036785;28;108970;-62
2023/09/26 09:44:41;;;;;;;8.25;3.97;;;;;;;25.96;39.23;95419.13;6039794;28;108928;-61
2023/09/26 09:47:46;;;;;;;7.15;3.80;;;;;;;25.91;38.65;95413.94;6042280;28;108894;-60
2023/09/26 09:50:55;;;;;;;8.10;3.97;;;;;;;25.94;38.29;95407.94;6041981;28;108893;-59
2023/09/26 09:54:01;;;;;;;6.50;3.40;;;;;;;26.02;38.29;95420.53;6030797;28;108805;-60
2023/09/26 09:57:09;;;;;;;6.93;3.63;;;;;;;25.93;38.14;95409.06;6057566;28;109026;-60
2023/09/26 10:00:14;;;;;;;7.13;3.58;;;;;;;25.95;38.14;95404.94;6042180;28;109012;-59
2023/09/26 10:03:18;;;;;;;6.40;3.63;;;;;;;25.98;38.79;95400.81;6041464;28;108927;-60
2023/09/26 10:06:23;;;;;;;6.87;3.40;;;;;;;26.01;38.58;95386.00;6030842;28;109728;-60
2023/09/26 10:09:27;;;;;;;4.45;3.38;;;;;;;26.05;38.57;95395.78;6041918;28;108937;-60
2023/09/26 10:12:31;;;;;;;7.03;3.70;;;;;;;25.97;38.60;95400.03;6041636;28;109260;-60
2023/09/26 10:16:15;;;;;;;4.68;3.50;;;;;;;25.98;39.05;95395.47;6033650;28;109052;-63
2023/09/26 10:19:19;;;;;;;5.87;3.30;;;;;;;26.04;39.23;95388.03;6042073;28;109035;-58
2023/09/26 10:22:43;;;;;;;4.93;3.30;;;;;;;25.99;39.37;95386.31;6041493;28;108938;-58
2023/09/26 10:25:46;;;;;;;5.00;3.53;;;;;;;25.94;39.56;95383.81;6041580;28;108983;-58
2023/09/26 10:28:52;;;;;;;4.75;3.60;;;;;;;25.99;39.60;95391.66;6029262;28;108945;-58
2023/09/26 10:31:58;;;;;;;6.47;3.70;;;;;;;25.97;39.38;95383.94;6041536;28;108930;-58
2023/09/26 10:35:24;;;;;;;6.35;3.75;;;;;;;25.94;39.66;95376.56;6041177;28;108933;-58
2023/09/26 10:38:30;;;;;;;4.80;3.50;;;;;;;25.93;39.95;95377.66;6033666;28;109192;-64
2023/09/26 10:41:33;;;;;;;5.60;3.40;;;;;;;25.95;39.69;95371.97;6039869;28;109272;-59
2023/09/26 10:44:56;;;;;;;5.93;3.90;;;;;;;25.91;40.03;95371.84;6041849;28;108918;-61
2023/09/26 10:48:05;;;;;;;5.70;3.50;;;;;;;25.89;40.10;95370.59;6041558;28;109112;-59
2023/09/26 10:51:28;;;;;;;7.18;4.07;;;;;;;26.02;39.69;95363.44;6030237;28;109217;-59
2023/09/26 10:54:34;;;;;;;5.25;3.60;;;;;;;26.07;39.97;95363.28;6040885;28;109082;-59
2023/09/26 10:57:39;;;;;;;6.50;3.45;;;;;;;26.03;39.90;95362.34;6040647;28;108954;-59
2023/09/26 11:00:50;;;;;;;6.50;3.58;;;;;;;26.03;40.25;95363.13;6035512;28;108973;-60
2023/09/26 11:03:53;;;;;;;5.40;3.50;;;;;;;26.02;40.40;95356.19;6034422;28;109054;-62
2023/09/26 11:06:57;;;;;;;9.82;4.47;;;;;;;25.83;40.34;95361.13;6032788;28;109232;-62
2023/09/26 11:10:03;;;;;;;10.40;4.72;;;;;;;25.65;40.80;95357.72;6037287;28;108908;-63
2023/09/26 11:13:07;;;;;;;9.48;4.43;;;;;;;25.66;40.55;95356.63;6029475;28;109094;-63
2023/09/26 11:16:10;;;;;;;8.52;4.70;;;;;;;25.62;40.81;95356.47;6029551;28;109038;-65
2023/09/26 11:19:13;;;;;;;9.15;5.20;;;;;;;25.65;41.00;95353.16;6036035;28;109259;-64
2023/09/26 11:22:16;;;;;;;10.77;5.00;;;;;;;25.57;41.57;95350.50;6035913;28;109143;-64
2023/09/26 11:25:21;;;;;;;11.27;5.30;;;;;;;25.55;40.86;95350.06;6028962;28;109465;-62
2023/09/26 11:28:24;;;;;;;10.57;5.10;;;;;;;25.56;40.78;95352.41;6041008;28;108949;-63
2023/09/26 11:31:28;;;;;;;9.80;4.97;;;;;;;25.57;41.10;95353.97;6037267;28;109032;-67
2023/09/26 11:34:34;;;;;;;11.27;5.53;;;;;;;25.53;41.23;95353.03;6030947;28;108900;-68
2023/09/26 11:37:38;;;;;;;12.50;5.90;;;;;;;25.50;40.75;95344.84;6033857;28;108841;-67
2023/09/26 11:40:45;;;;;;;9.93;5.60;;;;;;;25.53;41.48;95355.72;6038029;28;108882;-67
2023/09/26 11:43:48;;;;;;;8.50;5.30;;;;;;;25.54;41.28;95356.50;6036524;28;109436;-68
2023/09/26 11:46:52;;;;;;;11.10;5.63;;;;;;;25.51;41.23;95355.25;6028872;28;109605;-67
2023/09/26 11:49:56;;;;;;;8.05;5.10;;;;;;;25.52;41.56;95361.38;6035472;28;108991;-67
2023/09/26 11:53:00;;;;;;;10.37;5.50;;;;;;;25.44;41.04;95357.63;6035952;28;109058;-67
2023/09/26 11:56:08;;;;;;;15.48;6.25;;;;;;;25.43;40.72;95356.06;6041089;28;108914;-68
2023/09/26 11:59:12;;;;;;;9.00;6.18;;;;;;;25.41;41.02;95360.97;6026253;28;110424;-68
2023/09/26 12:02:15;;;;;;;12.80;6.78;;;;;;;25.41;41.26;95354.81;6038359;28;108922;-68
2023/09/26 12:05:21;;;;;;;11.70;5.77;;;;;;;25.34;41.44;95349.91;6035326;28;109344;-68
2023/09/26 12:08:26;;;;;;;10.07;5.70;;;;;;;25.28;41.14;95348.50;6036305;28;108928;-67
2023/09/26 12:11:31;;;;;;;9.57;5.10;;;;;;;25.34;40.52;95353.38;6026528;28;108997;-68
2023/09/26 12:14:34;;;;;;;8.90;5.50;;;;;;;25.33;40.59;95349.13;6035335;28;108945;-67
2023/09/26 12:17:38;;;;;;;10.07;5.22;;;;;;;25.37;41.21;95346.59;6040744;28;108902;-67
2023/09/26 12:20:41;;;;;;;9.57;5.33;;;;;;;25.32;41.07;95360.16;6028986;28;109233;-67
2023/09/26 12:23:44;;;;;;;10.13;5.85;;;;;;;25.33;41.36;95351.78;6029825;28;108957;-67
2023/09/26 12:26:49;;;;;;;8.90;5.75;;;;;;;25.31;40.60;95356.69;6038853;28;108969;-67
2023/09/26 12:29:52;;;;;;;10.73;6.00;;;;;;;25.34;41.33;95350.69;6036880;28;108949;-67
2023/09/26 12:32:55;;;;;;;10.02;6.00;;;;;;;25.35;40.89;95356.84;6024999;28;108902;-66
2023/09/26 12:35:59;;;;;;;8.02;5.63;;;;;;;25.36;41.01;95353.06;6037351;28;108551;-68
2023/09/26 12:39:03;;;;;;;11.33;6.00;;;;;;;25.40;40.88;95356.72;6040374;28;109194;-67
2023/09/26 12:42:08;;;;;;;10.33;5.40;;;;;;;25.37;41.02;95360.00;6035066;28;109809;-64
2023/09/26 12:45:11;;;;;;;11.38;5.40;;;;;;;25.37;41.93;95351.97;6023865;28;109061;-65
2023/09/26 12:48:15;;;;;;;10.20;5.73;;;;;;;25.35;41.78;95354.19;6041798;28;109133;-64
2023/09/26 12:51:18;;;;;;;8.87;5.60;;;;;;;25.35;41.40;95363.00;6034217;28;108941;-65
2023/09/26 12:54:23;;;;;;;11.70;5.87;;;;;;;25.29;41.28;95369.63;6029600;28;109353;-65
2023/09/26 12:57:27;;;;;;;7.43;5.30;;;;;;;25.33;41.22;95367.88;6026963;28;109450;-65
2023/09/26 13:00:33;;;;;;;9.93;6.20;;;;;;;25.32;41.06;95363.63;6036037;28;109029;-64
2023/09/26 13:03:36;;;;;;;10.43;6.03;;;;;;;25.26;41.02;95364.13;6038675;28;108905;-63
2023/09/26 13:06:40;;;;;;;13.75;6.32;;;;;;;25.28;41.43;95360.00;6028565;28;111109;-66
2023/09/26 13:09:43;;;;;;;9.82;5.55;;;;;;;25.32;41.43;95366.28;6040578;28;109199;-65
2023/09/26 13:12:47;;;;;;;13.50;5.72;;;;;;;25.32;41.77;95368.19;6035219;28;110051;-66
2023/09/26 13:15:50;;;;;;;15.37;5.43;;;;;;;25.26;41.51;95364.91;6034728;28;108971;-65
2023/09/26 13:18:55;;;;;;;10.38;5.38;;;;;;;25.28;41.47;95369.94;6026971;28;108954;-66
2023/09/26 13:21:58;;;;;;;13.55;5.90;;;;;;;25.22;41.41;95371.22;6040007;28;108953;-66
2023/09/26 13:25:01;;;;;;;9.43;4.83;;;;;;;25.21;41.25;95369.66;6029690;28;109070;-66
2023/09/26 13:28:08;;;;;;;14.53;5.20;;;;;;;25.25;41.24;95368.69;6034479;28;109326;-65
2023/09/26 13:31:11;;;;;;;14.23;5.47;;;;;;;25.20;41.06;95360.78;6022877;28;109302;-66
2023/09/26 13:34:14;;;;;;;10.73;5.40;;;;;;;25.22;41.13;95363.19;6034949;28;109087;-65
2023/09/26 13:37:17;;;;;;;11.07;6.10;;;;;;;25.24;41.57;95366.31;6038454;28;108964;-65
2023/09/26 13:40:20;;;;;;;11.38;6.35;;;;;;;25.20;41.30;95368.03;6032423;28;109189;-67
2023/09/26 13:43:25;;;;;;;11.80;5.85;;;;;;;25.18;41.99;95359.53;6037731;28;108945;-65
2023/09/26 13:46:28;;;;;;;9.20;5.40;;;;;;;25.22;41.28;95365.88;6040811;28;109155;-65
2023/09/26 13:49:31;;;;;;;12.43;5.85;;;;;;;25.23;41.26;95362.06;6038847;28;109394;-64
2023/09/26 13:52:35;;;;;;;14.88;6.30;;;;;;;25.25;41.16;95368.69;6029303;28;109846;-63
2023/09/26 13:55:38;;;;;;;13.30;6.30;;;;;;;25.25;41.67;95373.25;6036398;28;108965;-65
2023/09/26 13:58:42;;;;;;;12.40;5.78;;;;;;;25.29;41.32;95364.25;6040034;28;108999;-64
2023/09/26 14:01:45;;;;;;;9.97;6.90;;;;;;;25.27;41.76;95374.50;6041207;28;109173;-63
2023/09/26 14:04:49;;;;;;;13.03;7.23;;;;;;;25.25;41.42;95362.53;6025013;28;112007;-66
2023/09/26 14:07:55;;;;;;;12.30;7.70;;;;;;;25.18;41.61;95368.38;6039929;28;108903;-65
2023/09/26 14:10:58;;;;;;;12.32;7.15;;;;;;;25.20;41.48;95368.81;6039087;28;108993;-64
2023/09/26 14:14:03;;;;;;;11.27;6.63;;;;;;;25.17;41.45;95368.69;6031270;28;109201;-64